Dina Trader — ZDIW5 — position and weather

sailwx.info

Track history (hours):
 
Tides and Currents Weather Stations Pressure Air Temp Water Temp Dewpoint Dewpoint Depression Visibility Wind Speed Wind Dir Waves Ship Positions

Dina Trader

Last reported at 2018-Jul-22 19:30 UTC. Time now 2018-Jul-22 19:51 UTC.
Position N 51°57' E 004°00'.

Length 134 m; draft 7.3 m.

Type: Ship (hazmat cat A). MMSI: 236490000.

Date/timePositionNaut miles runAvg speedWind from/ knotsBaromVisibWave heightAir tempDewpointWater temp
2018-Jul-22 19:30N 51°57' E 004°00'0 1.0
2018-Jul-22 19:00N 51°57' E 003°60'0 0.0
2018-Jul-22 18:30N 51°57' E 003°60'0 0.0
2018-Jul-22 18:00N 51°57' E 003°60'0 0.0
2018-Jul-22 17:30N 51°57' E 003°60'0 0.0
2018-Jul-22 17:00N 51°57' E 003°60'0 0.0
2018-Jul-22 16:29N 51°57' E 003°60'0 0.0
2018-Jul-22 15:59N 51°57' E 003°60'0 0.0
2018-Jul-22 14:59N 51°57' E 003°60'0 0.0
2018-Jul-22 14:28N 51°57' E 003°60'0 0.0
2018-Jul-22 14:00N 51°57' E 003°60'0 0.0
2018-Jul-22 13:30N 51°57' E 003°60'0 0.0
2018-Jul-22 13:00N 51°57' E 003°60'2 3.4
2018-Jul-22 12:31N 51°59' E 004°01'2 4.4
2018-Jul-22 12:00N 51°57' E 004°03'0 0.1
2018-Jul-22 11:28N 51°57' E 004°03'0 0.0
2018-Jul-22 10:58N 51°57' E 004°03'0 0.0
2018-Jul-22 10:30N 51°57' E 004°03'0 0.0
2018-Jul-22 10:00N 51°57' E 004°03'0 0.0
2018-Jul-22 09:30N 51°57' E 004°03'0 0.0
2018-Jul-22 09:00N 51°57' E 004°03'0 0.0
2018-Jul-22 08:26N 51°57' E 004°03'0 0.0
2018-Jul-22 07:59N 51°57' E 004°03'0 0.7
2018-Jul-22 07:30N 51°57' E 004°04'4 7.1
2018-Jul-22 07:00N 51°60' E 004°01'611.8
2018-Jul-22 06:30N 51°59' E 003°51'5 9.6
2018-Jul-22 06:00N 51°57' E 003°45'2 3.2
2018-Jul-22 05:29N 51°56' E 003°43'0 0.0
2018-Jul-22 04:59N 51°56' E 003°43'0 0.0
2018-Jul-22 04:29N 51°56' E 003°43'0 0.0
2018-Jul-22 03:59N 51°56' E 003°43'0 0.0
2018-Jul-22 03:28N 51°56' E 003°43'0 0.0
2018-Jul-22 02:58N 51°56' E 003°43'0 0.0
2018-Jul-22 02:28N 51°56' E 003°43'0 0.1
2018-Jul-22 01:58N 51°56' E 003°43'0 0.1
2018-Jul-22 01:31N 51°56' E 003°43'0 0.1
2018-Jul-22 01:00N 51°56' E 003°43'0 0.1
2018-Jul-22 00:30N 51°56' E 003°43'0 0.0
2018-Jul-21 23:57N 51°56' E 003°43'1 3.0
2018-Jul-21 23:30N 51°56' E 003°41'611.3
2018-Jul-21 23:00N 51°57' E 003°32'612.4
2018-Jul-21 22:30N 51°55' E 003°22'612.4
2018-Jul-21 22:00N 51°53' E 003°13'612.6
2018-Jul-21 21:30N 51°51' E 003°03'612.7
2018-Jul-21 21:00N 51°49' E 002°53'612.8
2018-Jul-21 20:30N 51°47' E 002°43'612.6
2018-Jul-21 20:00N 51°44' E 002°35'713.1
2018-Jul-21 19:30N 51°39' E 002°28'612.8
2018-Jul-21 19:00N 51°34' E 002°21'612.4
2018-Jul-21 18:30N 51°29' E 002°15'612.2
2018-Jul-21 18:00N 51°23' E 002°11'612.0
2018-Jul-21 17:30N 51°18' E 002°07'611.2
2018-Jul-21 17:00N 51°14' E 002°01'510.8
2018-Jul-21 16:30N 51°10' E 001°54'510.4
2018-Jul-21 16:01N 51°07' E 001°48'5 9.2
2018-Jul-21 15:30N 51°03' E 001°48'5 9.4
2018-Jul-21 15:00N 51°02' E 001°55'713.2
2018-Jul-21 14:30N 51°03' E 002°06'4 8.0
2018-Jul-21 14:00N 51°01' E 002°11'0 0.0
2018-Jul-21 13:29N 51°01' E 002°11'0 0.0
2018-Jul-21 12:59N 51°01' E 002°11'0 0.0
2018-Jul-21 12:29N 51°01' E 002°11'0 0.0
2018-Jul-21 11:59N 51°01' E 002°11'0 0.0
2018-Jul-21 11:29N 51°01' E 002°11'0 0.0
2018-Jul-21 10:58N 51°01' E 002°11'0 0.0
2018-Jul-21 10:25N 51°01' E 002°11'0 0.0
2018-Jul-21 09:58N 51°01' E 002°11'0 0.0
2018-Jul-21 09:28N 51°01' E 002°11'0 0.0
2018-Jul-21 09:01N 51°01' E 002°11'0 0.0
2018-Jul-21 08:30N 51°01' E 002°11'0 0.0
2018-Jul-21 08:00N 51°01' E 002°11'0 0.0
2018-Jul-21 07:30N 51°01' E 002°11'0 0.0
2018-Jul-21 06:57N 51°01' E 002°11'0 0.0
2018-Jul-21 06:29N 51°01' E 002°11'0 0.0
2018-Jul-21 05:59N 51°01' E 002°11'0 0.0
2018-Jul-21 05:29N 51°01' E 002°11'0 0.0
2018-Jul-21 04:56N 51°01' E 002°11'0 0.0
2018-Jul-21 04:26N 51°01' E 002°11'0 0.0
2018-Jul-21 03:55N 51°01' E 002°11'0 0.0
2018-Jul-21 03:30N 51°01' E 002°11'2 3.5
2018-Jul-21 03:01N 51°02' E 002°10'612.7
2018-Jul-21 02:30N 51°02' E 001°60'714.0
2018-Jul-21 02:00N 51°02' E 001°49'4 7.9
2018-Jul-21 01:30N 51°02' E 001°42'510.2
2018-Jul-21 01:00N 50°60' E 001°35'510.4
2018-Jul-21 00:30N 50°56' E 001°29'510.4
2018-Jul-21 00:00N 50°52' E 001°25'510.6
2018-Jul-20 23:30N 50°46' E 001°23'710.2
2018-Jul-20 22:52N 50°41' E 001°18'410.7
2018-Jul-20 22:30N 50°38' E 001°14'610.5
2018-Jul-20 21:58N 50°34' E 001°07'510.6
2018-Jul-20 21:30N 50°31' E 001°01'510.3
2018-Jul-20 21:00N 50°29' E 000°54'2410.5
2018-Jul-20 18:45N 50°22' E 000°19'310.5
2018-Jul-20 18:30N 50°21' E 000°15'510.4
2018-Jul-20 17:59N 50°19' E 000°07'610.4
2018-Jul-20 17:27N 50°18' W 000°02'510.0
2018-Jul-20 17:00N 50°17' W 000°09'510.0
2018-Jul-20 16:30N 50°15' W 000°16'610.5
2018-Jul-20 15:57N 50°14' W 000°25'510.9
2018-Jul-20 15:30N 50°13' W 000°32'611.7
2018-Jul-20 15:00N 50°11' W 000°41'612.2
2018-Jul-20 14:29N 50°09' W 000°51'813.1
2018-Jul-20 13:51N 50°07' W 001°03'615.6
2018-Jul-20 13:30N 50°06' W 001°11'815.3
2018-Jul-20 12:59N 50°04' W 001°23'715.1
2018-Jul-20 12:30N 50°02' W 001°34'1914.8
2018-Jul-20 11:13N 49°57' W 002°03'913.7
2018-Jul-20 10:32N 49°55' W 002°17'413.0
2018-Jul-20 10:14N 49°54' W 002°23'312.8
2018-Jul-20 10:00N 49°53' W 002°27'612.6
2018-Jul-20 09:30N 49°52' W 002°36'812.2
2018-Jul-20 08:52N 49°49' W 002°48'912.0
2018-Jul-20 08:07N 49°46' W 003°01'314.9
2018-Jul-20 07:55N 49°44' W 003°05'716.0
2018-Jul-20 07:30N 49°41' W 003°14'815.9
2018-Jul-20 07:00N 49°37' W 003°24'7313.4
2018-Jul-20 01:33N 48°60' W 005°00'314.1
2018-Jul-20 01:20N 48°58' W 005°05'514.0
2018-Jul-20 00:57N 48°56' W 005°12'714.2
2018-Jul-20 00:29N 48°53' W 005°21'714.4
2018-Jul-20 00:00N 48°50' W 005°31'3512.4
2018-Jul-19 21:10N 48°15' W 005°28'214.5
2018-Jul-19 21:00N 48°13' W 005°26'713.6
2018-Jul-19 20:30N 48°08' W 005°19'713.9
2018-Jul-19 20:00N 48°11' W 005°09'714.1
2018-Jul-19 19:30N 48°13' W 004°59'714.4
2018-Jul-19 19:00N 48°16' W 004°49'714.1
2018-Jul-19 18:31N 48°19' W 004°39'4 8.1
2018-Jul-19 18:01N 48°21' W 004°34'3 6.0
2018-Jul-19 17:30N 48°22' W 004°30'2 3.9
2018-Jul-19 17:00N 48°23' W 004°28'0 0.0
2018-Jul-19 16:30N 48°23' W 004°28'0 0.0
2018-Jul-19 16:00N 48°23' W 004°28'0 0.0
2018-Jul-19 15:30N 48°23' W 004°28'0 0.0
2018-Jul-19 15:00N 48°23' W 004°28'0 0.0
2018-Jul-19 13:59N 48°23' W 004°28'0 0.0
2018-Jul-19 13:26N 48°23' W 004°28'0 0.0
2018-Jul-19 12:59N 48°23' W 004°28'0 0.0
2018-Jul-19 12:29N 48°23' W 004°28'0 0.0
2018-Jul-19 11:58N 48°23' W 004°28'0 0.0
2018-Jul-19 11:28N 48°23' W 004°28'0 0.0
2018-Jul-19 10:58N 48°23' W 004°28'0 0.0
2018-Jul-19 10:28N 48°23' W 004°28'0 0.0
2018-Jul-19 09:58N 48°23' W 004°28'0 0.0
2018-Jul-19 09:30N 48°23' W 004°28'0 0.0
2018-Jul-19 09:00N 48°23' W 004°28'0 0.0
2018-Jul-19 08:30N 48°23' W 004°28'0 0.0
2018-Jul-19 08:00N 48°23' W 004°28'0 0.0
2018-Jul-19 07:30N 48°23' W 004°28'0 0.0
2018-Jul-19 06:59N 48°23' W 004°28'0 0.0
2018-Jul-19 06:29N 48°23' W 004°28'0 0.0
2018-Jul-19 05:59N 48°23' W 004°28'0 0.0
2018-Jul-19 05:29N 48°23' W 004°28'0 0.0
2018-Jul-19 04:58N 48°23' W 004°28'0 0.0
2018-Jul-19 04:28N 48°23' W 004°28'0 0.0
2018-Jul-19 03:58N 48°23' W 004°28'0 0.0
2018-Jul-19 03:28N 48°23' W 004°28'0 0.0
2018-Jul-19 02:58N 48°23' W 004°28'0 0.0
2018-Jul-19 02:30N 48°23' W 004°28'0 0.0
2018-Jul-19 02:00N 48°23' W 004°28'0 0.0
2018-Jul-19 01:30N 48°23' W 004°28'0 0.0
2018-Jul-19 01:00N 48°23' W 004°28'0 0.0
2018-Jul-19 00:29N 48°23' W 004°28'0 0.0
2018-Jul-18 23:59N 48°23' W 004°28'0 0.0
2018-Jul-18 23:29N 48°23' W 004°28'0 0.0
2018-Jul-18 22:59N 48°23' W 004°28'0 0.0
2018-Jul-18 22:29N 48°23' W 004°28'0 0.0
2018-Jul-18 21:58N 48°23' W 004°28'0 0.0
2018-Jul-18 21:28N 48°23' W 004°28'0 0.0
2018-Jul-18 20:58N 48°23' W 004°28'0 0.0
2018-Jul-18 20:28N 48°23' W 004°28'0 0.0
2018-Jul-18 19:58N 48°23' W 004°28'0 0.0
2018-Jul-18 19:30N 48°23' W 004°28'0 0.0
2018-Jul-18 19:00N 48°23' W 004°28'0 0.0
2018-Jul-18 18:30N 48°23' W 004°28'0 0.0
2018-Jul-18 18:00N 48°23' W 004°28'0 0.0
2018-Jul-18 17:29N 48°23' W 004°28'0 0.0
2018-Jul-18 16:59N 48°23' W 004°28'0 0.0
2018-Jul-18 16:29N 48°23' W 004°28'0 0.0
2018-Jul-18 15:59N 48°23' W 004°28'0 0.0
2018-Jul-18 15:29N 48°23' W 004°28'0 0.0
2018-Jul-18 14:58N 48°23' W 004°28'0 0.0
2018-Jul-18 14:28N 48°23' W 004°28'0 0.0
2018-Jul-18 13:28N 48°23' W 004°28'0 0.0
2018-Jul-18 12:57N 48°23' W 004°28'0 0.0
2018-Jul-18 12:30N 48°23' W 004°28'0 0.0
2018-Jul-18 12:00N 48°23' W 004°28'0 0.0
2018-Jul-18 11:30N 48°23' W 004°28'0 0.0
2018-Jul-18 10:26N 48°23' W 004°28'0 0.0
2018-Jul-18 09:59N 48°23' W 004°28'0 0.0
2018-Jul-18 09:29N 48°23' W 004°28'0 0.0
2018-Jul-18 08:59N 48°23' W 004°28'0 0.0
2018-Jul-18 08:29N 48°23' W 004°28'0 0.0
2018-Jul-18 07:58N 48°23' W 004°28'0 0.0
2018-Jul-18 07:28N 48°23' W 004°28'0 0.0
2018-Jul-18 06:58N 48°23' W 004°28'0 0.0
2018-Jul-18 06:28N 48°23' W 004°28'0 0.0
2018-Jul-18 06:01N 48°23' W 004°28'0 0.0
2018-Jul-18 05:30N 48°23' W 004°28'0 0.0
2018-Jul-18 04:57N 48°23' W 004°28'0 0.0
2018-Jul-18 04:30N 48°23' W 004°28'0 0.0
2018-Jul-18 04:00N 48°23' W 004°28'0 0.0
2018-Jul-18 03:29N 48°23' W 004°28'0 0.0
2018-Jul-18 02:59N 48°23' W 004°28'0 0.0
2018-Jul-18 02:29N 48°23' W 004°28'0 0.0
2018-Jul-18 01:59N 48°23' W 004°28'0 0.0
2018-Jul-18 01:29N 48°23' W 004°28'0 0.0
2018-Jul-18 00:58N 48°23' W 004°28'0 0.0
2018-Jul-18 00:28N 48°23' W 004°28'0 0.0
2018-Jul-17 23:58N 48°23' W 004°28'0 0.0
2018-Jul-17 23:28N 48°23' W 004°28'0 0.0
2018-Jul-17 23:01N 48°23' W 004°28'0 0.0
2018-Jul-17 22:30N 48°23' W 004°28'0 0.0
2018-Jul-17 22:00N 48°23' W 004°28'0 0.0
2018-Jul-17 21:30N 48°23' W 004°28'0 0.0
2018-Jul-17 21:00N 48°23' W 004°28'0 0.0
2018-Jul-17 20:29N 48°23' W 004°28'0 0.0
2018-Jul-17 19:59N 48°23' W 004°28'0 0.0
2018-Jul-17 19:29N 48°23' W 004°28'0 0.0
2018-Jul-17 18:59N 48°23' W 004°28'0 0.0
2018-Jul-17 18:29N 48°23' W 004°28'0 0.0
2018-Jul-17 17:58N 48°23' W 004°28'0 0.0
2018-Jul-17 17:28N 48°23' W 004°28'0 0.0
2018-Jul-17 16:58N 48°23' W 004°28'0 0.0
2018-Jul-17 16:25N 48°23' W 004°28'0 0.0
2018-Jul-17 16:00N 48°23' W 004°28'0 0.0
2018-Jul-17 15:30N 48°23' W 004°28'0 0.0
2018-Jul-17 15:00N 48°23' W 004°28'0 0.0
2018-Jul-17 14:30N 48°23' W 004°28'0 0.0
2018-Jul-17 14:00N 48°23' W 004°28'0 0.0
2018-Jul-17 13:29N 48°23' W 004°28'0 0.0
2018-Jul-17 12:59N 48°23' W 004°28'0 0.0
2018-Jul-17 12:29N 48°23' W 004°28'0 0.0
2018-Jul-17 11:59N 48°23' W 004°28'0 0.0
2018-Jul-17 11:29N 48°23' W 004°28'0 0.0
2018-Jul-17 10:58N 48°23' W 004°28'0 0.0
2018-Jul-17 10:28N 48°23' W 004°28'0 0.0
2018-Jul-17 09:58N 48°23' W 004°28'0 0.0
2018-Jul-17 09:28N 48°23' W 004°28'0 0.0
2018-Jul-17 09:00N 48°23' W 004°28'0 0.0
2018-Jul-17 08:30N 48°23' W 004°28'0 0.0
2018-Jul-17 08:00N 48°23' W 004°28'0 0.0
2018-Jul-17 07:30N 48°23' W 004°28'0 0.0
2018-Jul-17 07:00N 48°23' W 004°28'0 0.0
2018-Jul-17 06:29N 48°23' W 004°28'0 0.0
2018-Jul-17 05:59N 48°23' W 004°28'0 0.0
2018-Jul-17 05:29N 48°23' W 004°28'0 0.0
2018-Jul-17 04:59N 48°23' W 004°28'0 0.0
2018-Jul-17 04:29N 48°23' W 004°28'0 0.0
2018-Jul-17 03:58N 48°23' W 004°28'0 0.0
2018-Jul-17 03:28N 48°23' W 004°28'0 0.0
2018-Jul-17 02:58N 48°23' W 004°28'0 0.0
2018-Jul-17 02:28N 48°23' W 004°28'0 0.0
2018-Jul-17 02:00N 48°23' W 004°28'0 0.0
2018-Jul-17 01:30N 48°23' W 004°28'0 0.0
2018-Jul-17 01:00N 48°23' W 004°28'0 0.0
2018-Jul-17 00:30N 48°23' W 004°28'0 0.0
2018-Jul-16 23:26N 48°23' W 004°28'0 0.0
2018-Jul-16 22:59N 48°23' W 004°28'0 0.0
2018-Jul-16 22:29N 48°23' W 004°28'0 0.0
2018-Jul-16 21:59N 48°23' W 004°28'0 0.0
2018-Jul-16 21:28N 48°23' W 004°28'0 0.0
2018-Jul-16 20:58N 48°23' W 004°28'0 0.0
2018-Jul-16 20:28N 48°23' W 004°28'0 0.0
2018-Jul-16 19:58N 48°23' W 004°28'0 0.0
2018-Jul-16 19:28N 48°23' W 004°28'0 0.0
2018-Jul-16 19:00N 48°23' W 004°28'0 0.0
2018-Jul-16 18:30N 48°23' W 004°28'0 0.0
2018-Jul-16 18:00N 48°23' W 004°28'0 0.0
2018-Jul-16 17:30N 48°23' W 004°28'0 0.0
2018-Jul-16 17:00N 48°23' W 004°28'0 0.0
2018-Jul-16 16:29N 48°23' W 004°28'0 0.0
2018-Jul-16 15:59N 48°23' W 004°28'0 0.0
2018-Jul-16 15:29N 48°23' W 004°28'0 0.0
2018-Jul-16 14:59N 48°23' W 004°28'0 0.0
2018-Jul-16 14:28N 48°23' W 004°28'0 0.0
2018-Jul-16 13:58N 48°23' W 004°28'0 0.0
2018-Jul-16 13:28N 48°23' W 004°28'0 0.0
2018-Jul-16 12:58N 48°23' W 004°28'0 0.0
2018-Jul-16 12:28N 48°23' W 004°28'0 0.0
2018-Jul-16 12:00N 48°23' W 004°28'0 0.0
2018-Jul-16 11:30N 48°23' W 004°28'0 0.0
2018-Jul-16 11:00N 48°23' W 004°28'0 0.0
2018-Jul-16 10:30N 48°23' W 004°28'0 0.0
2018-Jul-16 10:00N 48°23' W 004°28'0 0.0
2018-Jul-16 09:29N 48°23' W 004°28'0 0.0
2018-Jul-16 08:59N 48°23' W 004°28'0 0.0
2018-Jul-16 08:29N 48°23' W 004°28'0 0.0
2018-Jul-16 07:59N 48°23' W 004°28'0 0.0
2018-Jul-16 07:28N 48°23' W 004°28'0 0.0
2018-Jul-16 06:58N 48°23' W 004°28'0 0.0
2018-Jul-16 06:28N 48°23' W 004°28'0 0.0
2018-Jul-16 05:58N 48°23' W 004°28'0 0.0
2018-Jul-16 05:28N 48°23' W 004°28'0 0.0
2018-Jul-16 05:00N 48°23' W 004°28'0 0.0
2018-Jul-16 04:30N 48°23' W 004°28'0 0.0
2018-Jul-16 04:00N 48°23' W 004°28'0 0.0
2018-Jul-16 03:30N 48°23' W 004°28'0 0.0
2018-Jul-16 02:59N 48°23' W 004°28'0 0.0
2018-Jul-16 02:29N 48°23' W 004°28'0 0.0
2018-Jul-16 01:59N 48°23' W 004°28'0 0.0
2018-Jul-16 01:29N 48°23' W 004°28'0 0.0
2018-Jul-16 00:59N 48°23' W 004°28'0 0.0
2018-Jul-16 00:28N 48°23' W 004°28'0 0.0
2018-Jul-15 23:58N 48°23' W 004°28'0 0.0
2018-Jul-15 23:28N 48°23' W 004°28'0 0.0
2018-Jul-15 22:58N 48°23' W 004°28'0 0.0
2018-Jul-15 22:31N 48°23' W 004°28'0 0.0
2018-Jul-15 22:00N 48°23' W 004°28'0 0.0
2018-Jul-15 21:30N 48°23' W 004°28'0 0.0
2018-Jul-15 21:00N 48°23' W 004°28'0 0.0
2018-Jul-15 20:30N 48°23' W 004°28'0 0.0
2018-Jul-15 19:59N 48°23' W 004°28'0 0.0
2018-Jul-15 19:29N 48°23' W 004°28'0 0.0
2018-Jul-15 18:59N 48°23' W 004°28'0 0.0
2018-Jul-15 18:29N 48°23' W 004°28'0 0.0
2018-Jul-15 17:59N 48°23' W 004°28'0 0.0
2018-Jul-15 17:28N 48°23' W 004°28'0 0.0
2018-Jul-15 16:58N 48°23' W 004°28'0 0.0
2018-Jul-15 16:28N 48°23' W 004°28'0 0.0
2018-Jul-15 15:58N 48°23' W 004°28'0 0.0
2018-Jul-15 15:31N 48°23' W 004°28'0 0.0
2018-Jul-15 15:00N 48°23' W 004°28'0 0.0
2018-Jul-15 14:30N 48°23' W 004°28'0 0.0
2018-Jul-15 14:00N 48°23' W 004°28'0 0.0
2018-Jul-15 13:30N 48°23' W 004°28'0 0.0
2018-Jul-15 12:59N 48°23' W 004°28'0 0.0
2018-Jul-15 12:29N 48°23' W 004°28'0 0.0
2018-Jul-15 11:59N 48°23' W 004°28'0 0.0
2018-Jul-15 11:29N 48°23' W 004°28'0 0.0
2018-Jul-15 10:59N 48°23' W 004°28'0 0.0
2018-Jul-15 10:28N 48°23' W 004°28'0 0.0
2018-Jul-15 09:58N 48°23' W 004°28'0 0.0
2018-Jul-15 09:28N 48°23' W 004°28'0 0.0
2018-Jul-15 08:58N 48°23' W 004°28'0 0.0
2018-Jul-15 08:31N 48°23' W 004°28'0 0.0
2018-Jul-15 08:00N 48°23' W 004°28'0 0.0
2018-Jul-15 07:30N 48°23' W 004°28'0 0.0
2018-Jul-15 07:00N 48°23' W 004°28'0 0.0
2018-Jul-15 06:30N 48°23' W 004°28'0 0.0
2018-Jul-15 05:59N 48°23' W 004°28'0 0.0
2018-Jul-15 05:29N 48°23' W 004°28'0 0.0
2018-Jul-15 04:59N 48°23' W 004°28'0 0.0
2018-Jul-15 04:29N 48°23' W 004°28'0 0.0
2018-Jul-15 03:59N 48°23' W 004°28'0 0.0
2018-Jul-15 03:28N 48°23' W 004°28'0 0.0
2018-Jul-15 02:58N 48°23' W 004°28'0 0.0
2018-Jul-15 02:28N 48°23' W 004°28'0 0.0
2018-Jul-15 01:58N 48°23' W 004°28'0 0.0
2018-Jul-15 01:31N 48°23' W 004°28'0 0.0
2018-Jul-15 01:00N 48°23' W 004°28'0 0.0
2018-Jul-15 00:30N 48°23' W 004°28'0 0.0
2018-Jul-15 00:00N 48°23' W 004°28'0 0.0
2018-Jul-14 23:30N 48°23' W 004°28'0 0.0
2018-Jul-14 22:59N 48°23' W 004°28'0 0.0
2018-Jul-14 22:29N 48°23' W 004°28'0 0.0
2018-Jul-14 21:59N 48°23' W 004°28'0 0.0
2018-Jul-14 21:29N 48°23' W 004°28'0 0.0
2018-Jul-14 21:00N 48°23' W 004°28'1 2.1
2018-Jul-14 20:30N 48°22' W 004°28'2 3.5
2018-Jul-14 20:00N 48°21' W 004°30'3 5.0
2018-Jul-14 19:30N 48°21' W 004°34'3 5.9
2018-Jul-14 19:00N 48°19' W 004°38'3 6.4
2018-Jul-14 18:30N 48°18' W 004°42'3 6.6
2018-Jul-14 18:00N 48°17' W 004°47'3 6.7
2018-Jul-14 17:30N 48°16' W 004°52'3 6.5
2018-Jul-14 17:00N 48°14' W 004°56'1 1.7
2018-Jul-14 16:30N 48°14' W 004°57'0 0.8
2018-Jul-14 16:00N 48°14' W 004°57'0 0.7
2018-Jul-14 15:30N 48°14' W 004°57'0 0.4
2018-Jul-14 15:00N 48°15' W 004°58'0 0.8
2018-Jul-14 14:30N 48°15' W 004°57'3 3.0
2018-Jul-14 13:30N 48°15' W 004°53'816.6
2018-Jul-14 13:00N 48°18' W 004°41'612.7
2018-Jul-14 12:31N 48°21' W 004°32'4 7.2
2018-Jul-14 11:59N 48°23' W 004°28'0 0.0
2018-Jul-14 11:29N 48°23' W 004°28'0 0.0
2018-Jul-14 10:59N 48°23' W 004°28'0 0.0
2018-Jul-14 10:26N 48°23' W 004°28'0 0.0
2018-Jul-14 09:59N 48°23' W 004°28'0 0.1
2018-Jul-14 09:28N 48°23' W 004°28'0 0.0
2018-Jul-14 08:58N 48°23' W 004°28'0 0.0
2018-Jul-14 08:28N 48°23' W 004°28'0 0.0
2018-Jul-14 07:58N 48°23' W 004°28'0 0.1
2018-Jul-14 07:28N 48°23' W 004°28'0 0.0
2018-Jul-14 06:58N 48°23' W 004°28'0 0.0
2018-Jul-14 06:30N 48°23' W 004°28'0 0.0
2018-Jul-14 06:00N 48°23' W 004°28'0 0.0
2018-Jul-14 05:30N 48°23' W 004°28'0 0.0
2018-Jul-14 05:00N 48°23' W 004°28'0 0.0
2018-Jul-14 04:29N 48°23' W 004°28'0 0.0
2018-Jul-14 03:59N 48°23' W 004°28'0 0.0
2018-Jul-14 03:29N 48°23' W 004°28'0 0.3
2018-Jul-14 03:01N 48°23' W 004°28'3 6.0
2018-Jul-14 02:30N 48°21' W 004°31'713.7
2018-Jul-14 02:01N 48°18' W 004°41'612.9
2018-Jul-14 01:30N 48°15' W 004°49'613.0
2018-Jul-14 01:01N 48°12' W 004°58'713.0
2018-Jul-14 00:31N 48°09' W 005°07'713.5
2018-Jul-14 00:00N 48°06' W 005°15'5 9.4
2018-Jul-13 23:31N 48°01' W 005°13'713.3
2018-Jul-13 23:00N 47°57' W 005°05'713.7
2018-Jul-13 22:30N 47°53' W 004°58'714.9
2018-Jul-13 22:00N 47°48' W 004°49'914.6
2018-Jul-13 21:25N 47°43' W 004°39'615.2
2018-Jul-13 21:00N 47°38' W 004°32'1215.8
2018-Jul-13 20:15N 47°33' W 004°17'416.0
2018-Jul-13 20:00N 47°31' W 004°11'816.1
2018-Jul-13 19:30N 47°28' W 004°01'816.2
2018-Jul-13 19:00N 47°24' W 003°50'816.1
2018-Jul-13 18:30N 47°21' W 003°39'815.8
2018-Jul-13 18:00N 47°17' W 003°29'815.4
2018-Jul-13 17:30N 47°14' W 003°18'815.9
2018-Jul-13 17:00N 47°11' W 003°08'816.4
2018-Jul-13 16:31N 47°07' W 002°57'815.9
2018-Jul-13 16:00N 47°04' W 002°46'815.0
2018-Jul-13 15:29N 47°02' W 002°35'715.1
2018-Jul-13 15:00N 47°05' W 002°25'1413.8
2018-Jul-13 14:00N 47°16' W 002°12'3 4.6
2018-Jul-13 13:26N 47°18' W 002°09'0 0.0
2018-Jul-13 12:52N 47°18' W 002°09'0 0.0
2018-Jul-13 11:22N 47°18' W 002°09'0 0.0
2018-Jul-13 10:54N 47°18' W 002°09'0 0.0
2018-Jul-13 10:15N 47°18' W 002°09'0 0.0
2018-Jul-13 09:45N 47°18' W 002°09'0 0.0
2018-Jul-13 09:24N 47°18' W 002°09'0 0.0
2018-Jul-13 09:00N 47°18' W 002°09'0 0.0
2018-Jul-13 08:29N 47°18' W 002°09'0 0.0
2018-Jul-13 07:59N 47°18' W 002°09'0 0.0
2018-Jul-13 07:29N 47°18' W 002°09'0 0.0
2018-Jul-13 06:59N 47°18' W 002°09'0 0.0
2018-Jul-13 06:29N 47°18' W 002°09'0 0.0
2018-Jul-13 05:58N 47°18' W 002°09'0 0.0
2018-Jul-13 05:28N 47°18' W 002°09'0 0.0
2018-Jul-13 04:58N 47°18' W 002°09'0 0.0
2018-Jul-13 04:28N 47°18' W 002°09'0 0.0
2018-Jul-13 04:01N 47°18' W 002°09'0 0.0
2018-Jul-13 03:31N 47°18' W 002°09'1 2.4
2018-Jul-13 03:00N 47°17' W 002°10'5 9.9
2018-Jul-13 02:31N 47°14' W 002°16'611.3
2018-Jul-13 02:00N 47°09' W 002°20'3 5.6
2018-Jul-13 01:31N 47°07' W 002°23'1 2.3
2018-Jul-13 00:56N 47°07' W 002°25'0 0.1
2018-Jul-13 00:26N 47°07' W 002°25'0 0.0
2018-Jul-12 23:59N 47°07' W 002°25'0 0.0
2018-Jul-12 23:29N 47°07' W 002°25'0 0.0
2018-Jul-12 22:58N 47°07' W 002°25'0 0.1
2018-Jul-12 22:28N 47°07' W 002°25'0 0.2
2018-Jul-12 21:58N 47°07' W 002°25'0 0.1
2018-Jul-12 21:28N 47°07' W 002°25'0 0.0
2018-Jul-12 20:58N 47°07' W 002°25'0 0.1
2018-Jul-12 20:30N 47°07' W 002°25'0 0.0
2018-Jul-12 20:00N 47°07' W 002°25'  
Track history (hours):
 
Tides and Currents Weather Stations Pressure Air Temp Water Temp Dewpoint Dewpoint Depression Visibility Wind Speed Wind Dir Waves Ship Positions

Dina Trader

Last reported at 2018-Jul-22 19:30 UTC. Time now 2018-Jul-22 19:51 UTC.
Position N 51°57' E 004°00'.

Length 134 m; draft 7.3 m.

Type: Ship (hazmat cat A). MMSI: 236490000.

Date/timePositionNaut miles runAvg speedWind from/ knotsBaromVisibWave heightAir tempDewpointWater temp
2018-Jul-22 19:30N 51°57' E 004°00'0 1.0
2018-Jul-22 19:00N 51°57' E 003°60'0 0.0
2018-Jul-22 18:30N 51°57' E 003°60'0 0.0
2018-Jul-22 18:00N 51°57' E 003°60'0 0.0
2018-Jul-22 17:30N 51°57' E 003°60'0 0.0
2018-Jul-22 17:00N 51°57' E 003°60'0 0.0
2018-Jul-22 16:29N 51°57' E 003°60'0 0.0
2018-Jul-22 15:59N 51°57' E 003°60'0 0.0
2018-Jul-22 14:59N 51°57' E 003°60'0 0.0
2018-Jul-22 14:28N 51°57' E 003°60'0 0.0
2018-Jul-22 14:00N 51°57' E 003°60'0 0.0
2018-Jul-22 13:30N 51°57' E 003°60'0 0.0
2018-Jul-22 13:00N 51°57' E 003°60'2 3.4
2018-Jul-22 12:31N 51°59' E 004°01'2 4.4
2018-Jul-22 12:00N 51°57' E 004°03'0 0.1
2018-Jul-22 11:28N 51°57' E 004°03'0 0.0
2018-Jul-22 10:58N 51°57' E 004°03'0 0.0
2018-Jul-22 10:30N 51°57' E 004°03'0 0.0
2018-Jul-22 10:00N 51°57' E 004°03'0 0.0
2018-Jul-22 09:30N 51°57' E 004°03'0 0.0
2018-Jul-22 09:00N 51°57' E 004°03'0 0.0
2018-Jul-22 08:26N 51°57' E 004°03'0 0.0
2018-Jul-22 07:59N 51°57' E 004°03'0 0.7
2018-Jul-22 07:30N 51°57' E 004°04'4 7.1
2018-Jul-22 07:00N 51°60' E 004°01'611.8
2018-Jul-22 06:30N 51°59' E 003°51'5 9.6
2018-Jul-22 06:00N 51°57' E 003°45'2 3.2
2018-Jul-22 05:29N 51°56' E 003°43'0 0.0
2018-Jul-22 04:59N 51°56' E 003°43'0 0.0
2018-Jul-22 04:29N 51°56' E 003°43'0 0.0
2018-Jul-22 03:59N 51°56' E 003°43'0 0.0
2018-Jul-22 03:28N 51°56' E 003°43'0 0.0
2018-Jul-22 02:58N 51°56' E 003°43'0 0.0
2018-Jul-22 02:28N 51°56' E 003°43'0 0.1
2018-Jul-22 01:58N 51°56' E 003°43'0 0.1
2018-Jul-22 01:31N 51°56' E 003°43'0 0.1
2018-Jul-22 01:00N 51°56' E 003°43'0 0.1
2018-Jul-22 00:30N 51°56' E 003°43'0 0.0
2018-Jul-21 23:57N 51°56' E 003°43'1 3.0
2018-Jul-21 23:30N 51°56' E 003°41'611.3
2018-Jul-21 23:00N 51°57' E 003°32'612.4
2018-Jul-21 22:30N 51°55' E 003°22'612.4
2018-Jul-21 22:00N 51°53' E 003°13'612.6
2018-Jul-21 21:30N 51°51' E 003°03'612.7
2018-Jul-21 21:00N 51°49' E 002°53'612.8
2018-Jul-21 20:30N 51°47' E 002°43'612.6
2018-Jul-21 20:00N 51°44' E 002°35'713.1
2018-Jul-21 19:30N 51°39' E 002°28'612.8
2018-Jul-21 19:00N 51°34' E 002°21'612.4
2018-Jul-21 18:30N 51°29' E 002°15'612.2
2018-Jul-21 18:00N 51°23' E 002°11'612.0
2018-Jul-21 17:30N 51°18' E 002°07'611.2
2018-Jul-21 17:00N 51°14' E 002°01'510.8
2018-Jul-21 16:30N 51°10' E 001°54'510.4
2018-Jul-21 16:01N 51°07' E 001°48'5 9.2
2018-Jul-21 15:30N 51°03' E 001°48'5 9.4
2018-Jul-21 15:00N 51°02' E 001°55'713.2
2018-Jul-21 14:30N 51°03' E 002°06'4 8.0
2018-Jul-21 14:00N 51°01' E 002°11'0 0.0
2018-Jul-21 13:29N 51°01' E 002°11'0 0.0
2018-Jul-21 12:59N 51°01' E 002°11'0 0.0
2018-Jul-21 12:29N 51°01' E 002°11'0 0.0
2018-Jul-21 11:59N 51°01' E 002°11'0 0.0
2018-Jul-21 11:29N 51°01' E 002°11'0 0.0
2018-Jul-21 10:58N 51°01' E 002°11'0 0.0
2018-Jul-21 10:25N 51°01' E 002°11'0 0.0
2018-Jul-21 09:58N 51°01' E 002°11'0 0.0
2018-Jul-21 09:28N 51°01' E 002°11'0 0.0
2018-Jul-21 09:01N 51°01' E 002°11'0 0.0
2018-Jul-21 08:30N 51°01' E 002°11'0 0.0
2018-Jul-21 08:00N 51°01' E 002°11'0 0.0
2018-Jul-21 07:30N 51°01' E 002°11'0 0.0
2018-Jul-21 06:57N 51°01' E 002°11'0 0.0
2018-Jul-21 06:29N 51°01' E 002°11'0 0.0
2018-Jul-21 05:59N 51°01' E 002°11'0 0.0
2018-Jul-21 05:29N 51°01' E 002°11'0 0.0
2018-Jul-21 04:56N 51°01' E 002°11'0 0.0
2018-Jul-21 04:26N 51°01' E 002°11'0 0.0
2018-Jul-21 03:55N 51°01' E 002°11'0 0.0
2018-Jul-21 03:30N 51°01' E 002°11'2 3.5
2018-Jul-21 03:01N 51°02' E 002°10'612.7
2018-Jul-21 02:30N 51°02' E 001°60'714.0
2018-Jul-21 02:00N 51°02' E 001°49'4 7.9
2018-Jul-21 01:30N 51°02' E 001°42'510.2
2018-Jul-21 01:00N 50°60' E 001°35'510.4
2018-Jul-21 00:30N 50°56' E 001°29'510.4
2018-Jul-21 00:00N 50°52' E 001°25'510.6
2018-Jul-20 23:30N 50°46' E 001°23'710.2
2018-Jul-20 22:52N 50°41' E 001°18'410.7
2018-Jul-20 22:30N 50°38' E 001°14'610.5
2018-Jul-20 21:58N 50°34' E 001°07'510.6
2018-Jul-20 21:30N 50°31' E 001°01'510.3
2018-Jul-20 21:00N 50°29' E 000°54'2410.5
2018-Jul-20 18:45N 50°22' E 000°19'310.5
2018-Jul-20 18:30N 50°21' E 000°15'510.4
2018-Jul-20 17:59N 50°19' E 000°07'610.4
2018-Jul-20 17:27N 50°18' W 000°02'510.0
2018-Jul-20 17:00N 50°17' W 000°09'510.0
2018-Jul-20 16:30N 50°15' W 000°16'610.5
2018-Jul-20 15:57N 50°14' W 000°25'510.9
2018-Jul-20 15:30N 50°13' W 000°32'611.7
2018-Jul-20 15:00N 50°11' W 000°41'612.2
2018-Jul-20 14:29N 50°09' W 000°51'813.1
2018-Jul-20 13:51N 50°07' W 001°03'615.6
2018-Jul-20 13:30N 50°06' W 001°11'815.3
2018-Jul-20 12:59N 50°04' W 001°23'715.1
2018-Jul-20 12:30N 50°02' W 001°34'1914.8
2018-Jul-20 11:13N 49°57' W 002°03'913.7
2018-Jul-20 10:32N 49°55' W 002°17'413.0
2018-Jul-20 10:14N 49°54' W 002°23'312.8
2018-Jul-20 10:00N 49°53' W 002°27'612.6
2018-Jul-20 09:30N 49°52' W 002°36'812.2
2018-Jul-20 08:52N 49°49' W 002°48'912.0
2018-Jul-20 08:07N 49°46' W 003°01'314.9
2018-Jul-20 07:55N 49°44' W 003°05'716.0
2018-Jul-20 07:30N 49°41' W 003°14'815.9
2018-Jul-20 07:00N 49°37' W 003°24'7313.4
2018-Jul-20 01:33N 48°60' W 005°00'314.1
2018-Jul-20 01:20N 48°58' W 005°05'514.0
2018-Jul-20 00:57N 48°56' W 005°12'714.2
2018-Jul-20 00:29N 48°53' W 005°21'714.4
2018-Jul-20 00:00N 48°50' W 005°31'3512.4
2018-Jul-19 21:10N 48°15' W 005°28'214.5
2018-Jul-19 21:00N 48°13' W 005°26'713.6
2018-Jul-19 20:30N 48°08' W 005°19'713.9
2018-Jul-19 20:00N 48°11' W 005°09'714.1
2018-Jul-19 19:30N 48°13' W 004°59'714.4
2018-Jul-19 19:00N 48°16' W 004°49'714.1
2018-Jul-19 18:31N 48°19' W 004°39'4 8.1
2018-Jul-19 18:01N 48°21' W 004°34'3 6.0
2018-Jul-19 17:30N 48°22' W 004°30'2 3.9
2018-Jul-19 17:00N 48°23' W 004°28'0 0.0
2018-Jul-19 16:30N 48°23' W 004°28'0 0.0
2018-Jul-19 16:00N 48°23' W 004°28'0 0.0
2018-Jul-19 15:30N 48°23' W 004°28'0 0.0
2018-Jul-19 15:00N 48°23' W 004°28'0 0.0
2018-Jul-19 13:59N 48°23' W 004°28'0 0.0
2018-Jul-19 13:26N 48°23' W 004°28'0 0.0
2018-Jul-19 12:59N 48°23' W 004°28'0 0.0
2018-Jul-19 12:29N 48°23' W 004°28'0 0.0
2018-Jul-19 11:58N 48°23' W 004°28'0 0.0
2018-Jul-19 11:28N 48°23' W 004°28'0 0.0
2018-Jul-19 10:58N 48°23' W 004°28'0 0.0
2018-Jul-19 10:28N 48°23' W 004°28'0 0.0
2018-Jul-19 09:58N 48°23' W 004°28'0 0.0
2018-Jul-19 09:30N 48°23' W 004°28'0 0.0
2018-Jul-19 09:00N 48°23' W 004°28'0 0.0
2018-Jul-19 08:30N 48°23' W 004°28'0 0.0
2018-Jul-19 08:00N 48°23' W 004°28'0 0.0
2018-Jul-19 07:30N 48°23' W 004°28'0 0.0
2018-Jul-19 06:59N 48°23' W 004°28'0 0.0
2018-Jul-19 06:29N 48°23' W 004°28'0 0.0
2018-Jul-19 05:59N 48°23' W 004°28'0 0.0
2018-Jul-19 05:29N 48°23' W 004°28'0 0.0
2018-Jul-19 04:58N 48°23' W 004°28'0 0.0
2018-Jul-19 04:28N 48°23' W 004°28'0 0.0
2018-Jul-19 03:58N 48°23' W 004°28'0 0.0
2018-Jul-19 03:28N 48°23' W 004°28'0 0.0
2018-Jul-19 02:58N 48°23' W 004°28'0 0.0
2018-Jul-19 02:30N 48°23' W 004°28'0 0.0
2018-Jul-19 02:00N 48°23' W 004°28'0 0.0
2018-Jul-19 01:30N 48°23' W 004°28'0 0.0
2018-Jul-19 01:00N 48°23' W 004°28'0 0.0
2018-Jul-19 00:29N 48°23' W 004°28'0 0.0
2018-Jul-18 23:59N 48°23' W 004°28'0 0.0
2018-Jul-18 23:29N 48°23' W 004°28'0 0.0
2018-Jul-18 22:59N 48°23' W 004°28'0 0.0
2018-Jul-18 22:29N 48°23' W 004°28'0 0.0
2018-Jul-18 21:58N 48°23' W 004°28'0 0.0
2018-Jul-18 21:28N 48°23' W 004°28'0 0.0
2018-Jul-18 20:58N 48°23' W 004°28'0 0.0
2018-Jul-18 20:28N 48°23' W 004°28'0 0.0
2018-Jul-18 19:58N 48°23' W 004°28'0 0.0
2018-Jul-18 19:30N 48°23' W 004°28'0 0.0
2018-Jul-18 19:00N 48°23' W 004°28'0 0.0
2018-Jul-18 18:30N 48°23' W 004°28'0 0.0
2018-Jul-18 18:00N 48°23' W 004°28'0 0.0
2018-Jul-18 17:29N 48°23' W 004°28'0 0.0
2018-Jul-18 16:59N 48°23' W 004°28'0 0.0
2018-Jul-18 16:29N 48°23' W 004°28'0 0.0
2018-Jul-18 15:59N 48°23' W 004°28'0 0.0
2018-Jul-18 15:29N 48°23' W 004°28'0 0.0
2018-Jul-18 14:58N 48°23' W 004°28'0 0.0
2018-Jul-18 14:28N 48°23' W 004°28'0 0.0
2018-Jul-18 13:28N 48°23' W 004°28'0 0.0
2018-Jul-18 12:57N 48°23' W 004°28'0 0.0
2018-Jul-18 12:30N 48°23' W 004°28'0 0.0
2018-Jul-18 12:00N 48°23' W 004°28'0 0.0
2018-Jul-18 11:30N 48°23' W 004°28'0 0.0
2018-Jul-18 10:26N 48°23' W 004°28'0 0.0
2018-Jul-18 09:59N 48°23' W 004°28'0 0.0
2018-Jul-18 09:29N 48°23' W 004°28'0 0.0
2018-Jul-18 08:59N 48°23' W 004°28'0 0.0
2018-Jul-18 08:29N 48°23' W 004°28'0 0.0
2018-Jul-18 07:58N 48°23' W 004°28'0 0.0
2018-Jul-18 07:28N 48°23' W 004°28'0 0.0
2018-Jul-18 06:58N 48°23' W 004°28'0 0.0
2018-Jul-18 06:28N 48°23' W 004°28'0 0.0
2018-Jul-18 06:01N 48°23' W 004°28'0 0.0
2018-Jul-18 05:30N 48°23' W 004°28'0 0.0
2018-Jul-18 04:57N 48°23' W 004°28'0 0.0
2018-Jul-18 04:30N 48°23' W 004°28'0 0.0
2018-Jul-18 04:00N 48°23' W 004°28'0 0.0
2018-Jul-18 03:29N 48°23' W 004°28'0 0.0
2018-Jul-18 02:59N 48°23' W 004°28'0 0.0
2018-Jul-18 02:29N 48°23' W 004°28'0 0.0
2018-Jul-18 01:59N 48°23' W 004°28'0 0.0
2018-Jul-18 01:29N 48°23' W 004°28'0 0.0
2018-Jul-18 00:58N 48°23' W 004°28'0 0.0
2018-Jul-18 00:28N 48°23' W 004°28'0 0.0
2018-Jul-17 23:58N 48°23' W 004°28'0 0.0
2018-Jul-17 23:28N 48°23' W 004°28'0 0.0
2018-Jul-17 23:01N 48°23' W 004°28'0 0.0
2018-Jul-17 22:30N 48°23' W 004°28'0 0.0
2018-Jul-17 22:00N 48°23' W 004°28'0 0.0
2018-Jul-17 21:30N 48°23' W 004°28'0 0.0
2018-Jul-17 21:00N 48°23' W 004°28'0 0.0
2018-Jul-17 20:29N 48°23' W 004°28'0 0.0
2018-Jul-17 19:59N 48°23' W 004°28'0 0.0
2018-Jul-17 19:29N 48°23' W 004°28'0 0.0
2018-Jul-17 18:59N 48°23' W 004°28'0 0.0
2018-Jul-17 18:29N 48°23' W 004°28'0 0.0
2018-Jul-17 17:58N 48°23' W 004°28'0 0.0
2018-Jul-17 17:28N 48°23' W 004°28'0 0.0
2018-Jul-17 16:58N 48°23' W 004°28'0 0.0
2018-Jul-17 16:25N 48°23' W 004°28'0 0.0
2018-Jul-17 16:00N 48°23' W 004°28'0 0.0
2018-Jul-17 15:30N 48°23' W 004°28'0 0.0
2018-Jul-17 15:00N 48°23' W 004°28'0 0.0
2018-Jul-17 14:30N 48°23' W 004°28'0 0.0
2018-Jul-17 14:00N 48°23' W 004°28'0 0.0
2018-Jul-17 13:29N 48°23' W 004°28'0 0.0
2018-Jul-17 12:59N 48°23' W 004°28'0 0.0
2018-Jul-17 12:29N 48°23' W 004°28'0 0.0
2018-Jul-17 11:59N 48°23' W 004°28'0 0.0
2018-Jul-17 11:29N 48°23' W 004°28'0 0.0
2018-Jul-17 10:58N 48°23' W 004°28'0 0.0
2018-Jul-17 10:28N 48°23' W 004°28'0 0.0
2018-Jul-17 09:58N 48°23' W 004°28'0 0.0
2018-Jul-17 09:28N 48°23' W 004°28'0 0.0
2018-Jul-17 09:00N 48°23' W 004°28'0 0.0
2018-Jul-17 08:30N 48°23' W 004°28'0 0.0
2018-Jul-17 08:00N 48°23' W 004°28'0 0.0
2018-Jul-17 07:30N 48°23' W 004°28'0 0.0
2018-Jul-17 07:00N 48°23' W 004°28'0 0.0
2018-Jul-17 06:29N 48°23' W 004°28'0 0.0
2018-Jul-17 05:59N 48°23' W 004°28'0 0.0
2018-Jul-17 05:29N 48°23' W 004°28'0 0.0
2018-Jul-17 04:59N 48°23' W 004°28'0 0.0
2018-Jul-17 04:29N 48°23' W 004°28'0 0.0
2018-Jul-17 03:58N 48°23' W 004°28'0 0.0
2018-Jul-17 03:28N 48°23' W 004°28'0 0.0
2018-Jul-17 02:58N 48°23' W 004°28'0 0.0
2018-Jul-17 02:28N 48°23' W 004°28'0 0.0
2018-Jul-17 02:00N 48°23' W 004°28'0 0.0
2018-Jul-17 01:30N 48°23' W 004°28'0 0.0
2018-Jul-17 01:00N 48°23' W 004°28'0 0.0
2018-Jul-17 00:30N 48°23' W 004°28'0 0.0
2018-Jul-16 23:26N 48°23' W 004°28'0 0.0
2018-Jul-16 22:59N 48°23' W 004°28'0 0.0
2018-Jul-16 22:29N 48°23' W 004°28'0 0.0
2018-Jul-16 21:59N 48°23' W 004°28'0 0.0
2018-Jul-16 21:28N 48°23' W 004°28'0 0.0
2018-Jul-16 20:58N 48°23' W 004°28'0 0.0
2018-Jul-16 20:28N 48°23' W 004°28'0 0.0
2018-Jul-16 19:58N 48°23' W 004°28'0 0.0
2018-Jul-16 19:28N 48°23' W 004°28'0 0.0
2018-Jul-16 19:00N 48°23' W 004°28'0 0.0
2018-Jul-16 18:30N 48°23' W 004°28'0 0.0
2018-Jul-16 18:00N 48°23' W 004°28'0 0.0
2018-Jul-16 17:30N 48°23' W 004°28'0 0.0
2018-Jul-16 17:00N 48°23' W 004°28'0 0.0
2018-Jul-16 16:29N 48°23' W 004°28'0 0.0
2018-Jul-16 15:59N 48°23' W 004°28'0 0.0
2018-Jul-16 15:29N 48°23' W 004°28'0 0.0
2018-Jul-16 14:59N 48°23' W 004°28'0 0.0
2018-Jul-16 14:28N 48°23' W 004°28'0 0.0
2018-Jul-16 13:58N 48°23' W 004°28'0 0.0
2018-Jul-16 13:28N 48°23' W 004°28'0 0.0
2018-Jul-16 12:58N 48°23' W 004°28'0 0.0
2018-Jul-16 12:28N 48°23' W 004°28'0 0.0
2018-Jul-16 12:00N 48°23' W 004°28'0 0.0
2018-Jul-16 11:30N 48°23' W 004°28'0 0.0
2018-Jul-16 11:00N 48°23' W 004°28'0 0.0
2018-Jul-16 10:30N 48°23' W 004°28'0 0.0
2018-Jul-16 10:00N 48°23' W 004°28'0 0.0
2018-Jul-16 09:29N 48°23' W 004°28'0 0.0
2018-Jul-16 08:59N 48°23' W 004°28'0 0.0
2018-Jul-16 08:29N 48°23' W 004°28'0 0.0
2018-Jul-16 07:59N 48°23' W 004°28'0 0.0
2018-Jul-16 07:28N 48°23' W 004°28'0 0.0
2018-Jul-16 06:58N 48°23' W 004°28'0 0.0
2018-Jul-16 06:28N 48°23' W 004°28'0 0.0
2018-Jul-16 05:58N 48°23' W 004°28'0 0.0
2018-Jul-16 05:28N 48°23' W 004°28'0 0.0
2018-Jul-16 05:00N 48°23' W 004°28'0 0.0
2018-Jul-16 04:30N 48°23' W 004°28'0 0.0
2018-Jul-16 04:00N 48°23' W 004°28'0 0.0
2018-Jul-16 03:30N 48°23' W 004°28'0 0.0
2018-Jul-16 02:59N 48°23' W 004°28'0 0.0
2018-Jul-16 02:29N 48°23' W 004°28'0 0.0
2018-Jul-16 01:59N 48°23' W 004°28'0 0.0
2018-Jul-16 01:29N 48°23' W 004°28'0 0.0
2018-Jul-16 00:59N 48°23' W 004°28'0 0.0
2018-Jul-16 00:28N 48°23' W 004°28'0 0.0
2018-Jul-15 23:58N 48°23' W 004°28'0 0.0
2018-Jul-15 23:28N 48°23' W 004°28'0 0.0
2018-Jul-15 22:58N 48°23' W 004°28'0 0.0
2018-Jul-15 22:31N 48°23' W 004°28'0 0.0
2018-Jul-15 22:00N 48°23' W 004°28'0 0.0
2018-Jul-15 21:30N 48°23' W 004°28'0 0.0
2018-Jul-15 21:00N 48°23' W 004°28'0 0.0
2018-Jul-15 20:30N 48°23' W 004°28'0 0.0
2018-Jul-15 19:59N 48°23' W 004°28'0 0.0
2018-Jul-15 19:29N 48°23' W 004°28'0 0.0
2018-Jul-15 18:59N 48°23' W 004°28'0 0.0
2018-Jul-15 18:29N 48°23' W 004°28'0 0.0
2018-Jul-15 17:59N 48°23' W 004°28'0 0.0
2018-Jul-15 17:28N 48°23' W 004°28'0 0.0
2018-Jul-15 16:58N 48°23' W 004°28'0 0.0
2018-Jul-15 16:28N 48°23' W 004°28'0 0.0
2018-Jul-15 15:58N 48°23' W 004°28'0 0.0
2018-Jul-15 15:31N 48°23' W 004°28'0 0.0
2018-Jul-15 15:00N 48°23' W 004°28'0 0.0
2018-Jul-15 14:30N 48°23' W 004°28'0 0.0
2018-Jul-15 14:00N 48°23' W 004°28'0 0.0
2018-Jul-15 13:30N 48°23' W 004°28'0 0.0
2018-Jul-15 12:59N 48°23' W 004°28'0 0.0
2018-Jul-15 12:29N 48°23' W 004°28'0 0.0
2018-Jul-15 11:59N 48°23' W 004°28'0 0.0
2018-Jul-15 11:29N 48°23' W 004°28'0 0.0
2018-Jul-15 10:59N 48°23' W 004°28'0 0.0
2018-Jul-15 10:28N 48°23' W 004°28'0 0.0
2018-Jul-15 09:58N 48°23' W 004°28'0 0.0
2018-Jul-15 09:28N 48°23' W 004°28'0 0.0
2018-Jul-15 08:58N 48°23' W 004°28'0 0.0
2018-Jul-15 08:31N 48°23' W 004°28'0 0.0
2018-Jul-15 08:00N 48°23' W 004°28'0 0.0
2018-Jul-15 07:30N 48°23' W 004°28'0 0.0
2018-Jul-15 07:00N 48°23' W 004°28'0 0.0
2018-Jul-15 06:30N 48°23' W 004°28'0 0.0
2018-Jul-15 05:59N 48°23' W 004°28'0 0.0
2018-Jul-15 05:29N 48°23' W 004°28'0 0.0
2018-Jul-15 04:59N 48°23' W 004°28'0 0.0
2018-Jul-15 04:29N 48°23' W 004°28'0 0.0
2018-Jul-15 03:59N 48°23' W 004°28'0 0.0
2018-Jul-15 03:28N 48°23' W 004°28'0 0.0
2018-Jul-15 02:58N 48°23' W 004°28'0 0.0
2018-Jul-15 02:28N 48°23' W 004°28'0 0.0
2018-Jul-15 01:58N 48°23' W 004°28'0 0.0
2018-Jul-15 01:31N 48°23' W 004°28'0 0.0
2018-Jul-15 01:00N 48°23' W 004°28'0 0.0
2018-Jul-15 00:30N 48°23' W 004°28'0 0.0
2018-Jul-15 00:00N 48°23' W 004°28'0 0.0
2018-Jul-14 23:30N 48°23' W 004°28'0 0.0
2018-Jul-14 22:59N 48°23' W 004°28'0 0.0
2018-Jul-14 22:29N 48°23' W 004°28'0 0.0
2018-Jul-14 21:59N 48°23' W 004°28'0 0.0
2018-Jul-14 21:29N 48°23' W 004°28'0 0.0
2018-Jul-14 21:00N 48°23' W 004°28'1 2.1
2018-Jul-14 20:30N 48°22' W 004°28'2 3.5
2018-Jul-14 20:00N 48°21' W 004°30'3 5.0
2018-Jul-14 19:30N 48°21' W 004°34'3 5.9
2018-Jul-14 19:00N 48°19' W 004°38'3 6.4
2018-Jul-14 18:30N 48°18' W 004°42'3 6.6
2018-Jul-14 18:00N 48°17' W 004°47'3 6.7
2018-Jul-14 17:30N 48°16' W 004°52'3 6.5
2018-Jul-14 17:00N 48°14' W 004°56'1 1.7
2018-Jul-14 16:30N 48°14' W 004°57'0 0.8
2018-Jul-14 16:00N 48°14' W 004°57'0 0.7
2018-Jul-14 15:30N 48°14' W 004°57'0 0.4
2018-Jul-14 15:00N 48°15' W 004°58'0 0.8
2018-Jul-14 14:30N 48°15' W 004°57'3 3.0
2018-Jul-14 13:30N 48°15' W 004°53'816.6
2018-Jul-14 13:00N 48°18' W 004°41'612.7
2018-Jul-14 12:31N 48°21' W 004°32'4 7.2
2018-Jul-14 11:59N 48°23' W 004°28'0 0.0
2018-Jul-14 11:29N 48°23' W 004°28'0 0.0
2018-Jul-14 10:59N 48°23' W 004°28'0 0.0
2018-Jul-14 10:26N 48°23' W 004°28'0 0.0
2018-Jul-14 09:59N 48°23' W 004°28'0 0.1
2018-Jul-14 09:28N 48°23' W 004°28'0 0.0
2018-Jul-14 08:58N 48°23' W 004°28'0 0.0
2018-Jul-14 08:28N 48°23' W 004°28'0 0.0
2018-Jul-14 07:58N 48°23' W 004°28'0 0.1
2018-Jul-14 07:28N 48°23' W 004°28'0 0.0
2018-Jul-14 06:58N 48°23' W 004°28'0 0.0
2018-Jul-14 06:30N 48°23' W 004°28'0 0.0
2018-Jul-14 06:00N 48°23' W 004°28'0 0.0
2018-Jul-14 05:30N 48°23' W 004°28'0 0.0
2018-Jul-14 05:00N 48°23' W 004°28'0 0.0
2018-Jul-14 04:29N 48°23' W 004°28'0 0.0
2018-Jul-14 03:59N 48°23' W 004°28'0 0.0
2018-Jul-14 03:29N 48°23' W 004°28'0 0.3
2018-Jul-14 03:01N 48°23' W 004°28'3 6.0
2018-Jul-14 02:30N 48°21' W 004°31'713.7
2018-Jul-14 02:01N 48°18' W 004°41'612.9
2018-Jul-14 01:30N 48°15' W 004°49'613.0
2018-Jul-14 01:01N 48°12' W 004°58'713.0
2018-Jul-14 00:31N 48°09' W 005°07'713.5
2018-Jul-14 00:00N 48°06' W 005°15'5 9.4
2018-Jul-13 23:31N 48°01' W 005°13'713.3
2018-Jul-13 23:00N 47°57' W 005°05'713.7
2018-Jul-13 22:30N 47°53' W 004°58'714.9
2018-Jul-13 22:00N 47°48' W 004°49'914.6
2018-Jul-13 21:25N 47°43' W 004°39'615.2
2018-Jul-13 21:00N 47°38' W 004°32'1215.8
2018-Jul-13 20:15N 47°33' W 004°17'416.0
2018-Jul-13 20:00N 47°31' W 004°11'816.1
2018-Jul-13 19:30N 47°28' W 004°01'816.2
2018-Jul-13 19:00N 47°24' W 003°50'816.1
2018-Jul-13 18:30N 47°21' W 003°39'815.8
2018-Jul-13 18:00N 47°17' W 003°29'815.4
2018-Jul-13 17:30N 47°14' W 003°18'815.9
2018-Jul-13 17:00N 47°11' W 003°08'816.4
2018-Jul-13 16:31N 47°07' W 002°57'815.9
2018-Jul-13 16:00N 47°04' W 002°46'815.0
2018-Jul-13 15:29N 47°02' W 002°35'715.1
2018-Jul-13 15:00N 47°05' W 002°25'1413.8
2018-Jul-13 14:00N 47°16' W 002°12'3 4.6
2018-Jul-13 13:26N 47°18' W 002°09'0 0.0
2018-Jul-13 12:52N 47°18' W 002°09'0 0.0
2018-Jul-13 11:22N 47°18' W 002°09'0 0.0
2018-Jul-13 10:54N 47°18' W 002°09'0 0.0
2018-Jul-13 10:15N 47°18' W 002°09'0 0.0
2018-Jul-13 09:45N 47°18' W 002°09'0 0.0
2018-Jul-13 09:24N 47°18' W 002°09'0 0.0
2018-Jul-13 09:00N 47°18' W 002°09'0 0.0
2018-Jul-13 08:29N 47°18' W 002°09'0 0.0
2018-Jul-13 07:59N 47°18' W 002°09'0 0.0
2018-Jul-13 07:29N 47°18' W 002°09'0 0.0
2018-Jul-13 06:59N 47°18' W 002°09'0 0.0
2018-Jul-13 06:29N 47°18' W 002°09'0 0.0
2018-Jul-13 05:58N 47°18' W 002°09'0 0.0
2018-Jul-13 05:28N 47°18' W 002°09'0 0.0
2018-Jul-13 04:58N 47°18' W 002°09'0 0.0
2018-Jul-13 04:28N 47°18' W 002°09'0 0.0
2018-Jul-13 04:01N 47°18' W 002°09'0 0.0
2018-Jul-13 03:31N 47°18' W 002°09'1 2.4
2018-Jul-13 03:00N 47°17' W 002°10'5 9.9
2018-Jul-13 02:31N 47°14' W 002°16'611.3
2018-Jul-13 02:00N 47°09' W 002°20'3 5.6
2018-Jul-13 01:31N 47°07' W 002°23'1 2.3
2018-Jul-13 00:56N 47°07' W 002°25'0 0.1
2018-Jul-13 00:26N 47°07' W 002°25'0 0.0
2018-Jul-12 23:59N 47°07' W 002°25'0 0.0
2018-Jul-12 23:29N 47°07' W 002°25'0 0.0
2018-Jul-12 22:58N 47°07' W 002°25'0 0.1
2018-Jul-12 22:28N 47°07' W 002°25'0 0.2
2018-Jul-12 21:58N 47°07' W 002°25'0 0.1
2018-Jul-12 21:28N 47°07' W 002°25'0 0.0
2018-Jul-12 20:58N 47°07' W 002°25'0 0.1
2018-Jul-12 20:30N 47°07' W 002°25'0 0.0
2018-Jul-12 20:00N 47°07' W 002°25'  

Dump ship's entire track history